sensor_id;sensor_type;location;lat;lon;timestamp;pressure;altitude;pressure_sealevel;temperature;humidity
6200;BME280;3133;43.214;27.906;2023-09-19T00:00:56;101051.44;;;19.07;100.00
6200;BME280;3133;43.214;27.906;2023-09-19T00:03:23;101025.31;;;18.95;100.00
6200;BME280;3133;43.214;27.906;2023-09-19T00:05:52;101025.09;;;19.04;100.00
6200;BME280;3133;43.214;27.906;2023-09-19T00:08:21;101048.78;;;19.07;100.00
6200;BME280;3133;43.214;27.906;2023-09-19T00:10:50;101042.50;;;19.11;100.00
6200;BME280;3133;43.214;27.906;2023-09-19T00:13:17;101042.44;;;19.14;100.00
6200;BME280;3133;43.214;27.906;2023-09-19T00:15:45;100971.50;;;18.64;100.00
6200;BME280;3133;43.214;27.906;2023-09-19T00:18:14;101022.91;;;18.86;100.00
6200;BME280;3133;43.214;27.906;2023-09-19T00:20:44;101013.94;;;18.92;100.00
6200;BME280;3133;43.214;27.906;2023-09-19T00:23:14;101035.63;;;19.06;100.00
6200;BME280;3133;43.214;27.906;2023-09-19T00:25:42;100947.28;;;18.47;100.00
6200;BME280;3133;43.214;27.906;2023-09-19T00:28:08;101029.56;;;19.01;100.00
6200;BME280;3133;43.214;27.906;2023-09-19T00:30:35;101037.63;;;18.96;100.00
6200;BME280;3133;43.214;27.906;2023-09-19T00:33:04;101035.13;;;18.90;100.00
6200;BME280;3133;43.214;27.906;2023-09-19T00:35:33;100958.91;;;18.38;100.00
6200;BME280;3133;43.214;27.906;2023-09-19T00:38:00;100925.16;;;18.16;100.00
6200;BME280;3133;43.214;27.906;2023-09-19T00:40:30;101032.72;;;18.81;100.00
6200;BME280;3133;43.214;27.906;2023-09-19T00:42:58;101030.34;;;18.71;100.00
6200;BME280;3133;43.214;27.906;2023-09-19T00:45:26;100984.44;;;18.39;100.00
6200;BME280;3133;43.214;27.906;2023-09-19T00:47:54;101030.72;;;18.56;100.00
6200;BME280;3133;43.214;27.906;2023-09-19T00:50:23;101029.34;;;18.39;100.00
6200;BME280;3133;43.214;27.906;2023-09-19T00:52:54;101032.91;;;18.37;100.00
6200;BME280;3133;43.214;27.906;2023-09-19T00:55:21;100971.41;;;17.95;100.00
6200;BME280;3133;43.214;27.906;2023-09-19T00:57:49;101037.53;;;18.27;100.00
6200;BME280;3133;43.214;27.906;2023-09-19T01:00:17;101031.31;;;18.30;100.00
6200;BME280;3133;43.214;27.906;2023-09-19T01:02:46;100985.31;;;18.03;100.00
6200;BME280;3133;43.214;27.906;2023-09-19T01:05:14;101000.06;;;18.12;100.00
6200;BME280;3133;43.214;27.906;2023-09-19T01:07:41;101025.09;;;18.32;100.00
6200;BME280;3133;43.214;27.906;2023-09-19T01:10:12;100939.69;;;17.60;100.00
6200;BME280;3133;43.214;27.906;2023-09-19T01:12:48;101001.41;;;17.93;100.00
6200;BME280;3133;43.214;27.906;2023-09-19T01:15:25;100939.81;;;17.52;100.00
6200;BME280;3133;43.214;27.906;2023-09-19T01:18:02;101032.09;;;17.97;100.00
6200;BME280;3133;43.214;27.906;2023-09-19T01:20:37;100956.25;;;17.67;100.00
6200;BME280;3133;43.214;27.906;2023-09-19T01:23:13;101022.91;;;18.13;100.00
6200;BME280;3133;43.214;27.906;2023-09-19T01:29:01;101010.53;;;18.15;100.00
6200;BME280;3133;43.214;27.906;2023-09-19T01:31:42;101012.16;;;18.22;100.00
6200;BME280;3133;43.214;27.906;2023-09-19T01:34:11;100989.63;;;18.07;100.00
6200;BME280;3133;43.214;27.906;2023-09-19T01:36:38;101001.69;;;18.17;100.00
6200;BME280;3133;43.214;27.906;2023-09-19T01:39:06;101011.31;;;18.20;100.00
6200;BME280;3133;43.214;27.906;2023-09-19T01:41:44;100932.25;;;17.77;100.00
6200;BME280;3133;43.214;27.906;2023-09-19T01:44:19;100986.09;;;18.07;100.00
6200;BME280;3133;43.214;27.906;2023-09-19T01:46:50;100952.22;;;17.89;100.00
6200;BME280;3133;43.214;27.906;2023-09-19T01:49:27;101025.44;;;18.17;100.00
6200;BME280;3133;43.214;27.906;2023-09-19T01:52:05;101013.19;;;18.15;100.00
6200;BME280;3133;43.214;27.906;2023-09-19T01:54:39;101018.56;;;18.10;100.00
6200;BME280;3133;43.214;27.906;2023-09-19T01:57:09;100946.38;;;17.75;100.00
6200;BME280;3133;43.214;27.906;2023-09-19T01:59:45;101016.66;;;18.17;100.00
6200;BME280;3133;43.214;27.906;2023-09-19T02:02:16;100987.13;;;18.00;100.00
6200;BME280;3133;43.214;27.906;2023-09-19T02:04:44;101020.13;;;18.19;100.00
6200;BME280;3133;43.214;27.906;2023-09-19T02:07:11;100979.38;;;17.94;100.00
6200;BME280;3133;43.214;27.906;2023-09-19T02:09:37;100959.44;;;17.81;100.00
6200;BME280;3133;43.214;27.906;2023-09-19T02:12:05;100999.59;;;17.93;100.00
6200;BME280;3133;43.214;27.906;2023-09-19T02:14:32;100936.66;;;17.37;100.00
6200;BME280;3133;43.214;27.906;2023-09-19T02:16:59;101017.44;;;17.84;100.00
6200;BME280;3133;43.214;27.906;2023-09-19T02:19:27;101019.22;;;17.82;100.00
6200;BME280;3133;43.214;27.906;2023-09-19T02:21:55;100958.47;;;17.43;100.00
6200;BME280;3133;43.214;27.906;2023-09-19T02:24:22;100994.38;;;17.50;100.00
6200;BME280;3133;43.214;27.906;2023-09-19T02:26:52;100930.13;;;17.12;100.00
6200;BME280;3133;43.214;27.906;2023-09-19T02:29:20;100874.47;;;16.85;100.00
6200;BME280;3133;43.214;27.906;2023-09-19T02:31:47;101008.91;;;17.70;100.00
6200;BME280;3133;43.214;27.906;2023-09-19T02:34:14;100962.72;;;17.50;100.00
6200;BME280;3133;43.214;27.906;2023-09-19T02:36:43;100875.13;;;16.95;100.00
6200;BME280;3133;43.214;27.906;2023-09-19T02:39:11;101003.44;;;17.79;100.00
6200;BME280;3133;43.214;27.906;2023-09-19T02:41:38;101005.41;;;17.71;100.00
6200;BME280;3133;43.214;27.906;2023-09-19T02:44:07;100939.19;;;17.41;100.00
6200;BME280;3133;43.214;27.906;2023-09-19T02:46:34;101001.75;;;17.76;100.00
6200;BME280;3133;43.214;27.906;2023-09-19T02:49:02;100897.66;;;17.11;100.00
6200;BME280;3133;43.214;27.906;2023-09-19T02:51:30;101004.56;;;17.69;100.00
6200;BME280;3133;43.214;27.906;2023-09-19T02:53:59;101003.78;;;17.63;100.00
6200;BME280;3133;43.214;27.906;2023-09-19T02:56:28;100925.53;;;17.21;100.00
6200;BME280;3133;43.214;27.906;2023-09-19T02:58:56;101003.31;;;17.43;100.00
6200;BME280;3133;43.214;27.906;2023-09-19T03:01:23;100991.88;;;17.43;100.00
6200;BME280;3133;43.214;27.906;2023-09-19T03:03:50;100905.06;;;16.91;100.00
6200;BME280;3133;43.214;27.906;2023-09-19T03:06:17;100956.91;;;17.35;100.00
6200;BME280;3133;43.214;27.906;2023-09-19T03:08:45;100968.19;;;17.40;100.00
6200;BME280;3133;43.214;27.906;2023-09-19T03:11:15;100994.44;;;17.46;100.00
6200;BME280;3133;43.214;27.906;2023-09-19T03:13:50;100966.56;;;17.34;100.00
6200;BME280;3133;43.214;27.906;2023-09-19T03:16:17;100996.09;;;17.53;100.00
6200;BME280;3133;43.214;27.906;2023-09-19T03:18:47;100942.19;;;17.23;100.00
6200;BME280;3133;43.214;27.906;2023-09-19T03:21:14;100997.00;;;17.52;100.00
6200;BME280;3133;43.214;27.906;2023-09-19T03:23:41;101002.53;;;17.38;100.00
6200;BME280;3133;43.214;27.906;2023-09-19T03:26:11;101000.63;;;17.01;100.00
6200;BME280;3133;43.214;27.906;2023-09-19T03:28:41;100925.50;;;16.30;100.00
6200;BME280;3133;43.214;27.906;2023-09-19T03:31:09;100996.25;;;17.00;100.00
6200;BME280;3133;43.214;27.906;2023-09-19T03:33:37;100947.75;;;16.64;100.00
6200;BME280;3133;43.214;27.906;2023-09-19T03:36:05;101002.25;;;17.08;100.00
6200;BME280;3133;43.214;27.906;2023-09-19T03:38:33;100904.88;;;16.54;100.00
6200;BME280;3133;43.214;27.906;2023-09-19T03:41:00;100998.72;;;17.09;100.00
6200;BME280;3133;43.214;27.906;2023-09-19T03:43:27;100930.00;;;16.73;100.00
6200;BME280;3133;43.214;27.906;2023-09-19T03:45:55;100946.38;;;16.89;100.00
6200;BME280;3133;43.214;27.906;2023-09-19T03:48:22;100914.19;;;16.73;100.00
6200;BME280;3133;43.214;27.906;2023-09-19T03:50:50;101011.63;;;17.22;100.00
6200;BME280;3133;43.214;27.906;2023-09-19T03:53:21;100982.94;;;17.07;100.00
6200;BME280;3133;43.214;27.906;2023-09-19T03:55:48;101005.53;;;17.19;100.00
6200;BME280;3133;43.214;27.906;2023-09-19T03:58:15;101006.47;;;17.16;100.00
6200;BME280;3133;43.214;27.906;2023-09-19T04:00:42;101008.25;;;17.14;100.00
6200;BME280;3133;43.214;27.906;2023-09-19T04:03:11;100932.81;;;16.63;100.00
6200;BME280;3133;43.214;27.906;2023-09-19T04:05:45;101001.47;;;17.01;100.00
6200;BME280;3133;43.214;27.906;2023-09-19T04:08:14;100947.50;;;16.76;100.00
6200;BME280;3133;43.214;27.906;2023-09-19T04:10:42;100857.06;;;16.30;100.00
6200;BME280;3133;43.214;27.906;2023-09-19T04:13:11;100849.16;;;16.28;100.00
6200;BME280;3133;43.214;27.906;2023-09-19T04:15:38;100980.16;;;17.15;100.00
6200;BME280;3133;43.214;27.906;2023-09-19T04:18:05;100856.50;;;16.61;100.00
6200;BME280;3133;43.214;27.906;2023-09-19T04:20:34;100985.63;;;17.50;100.00
6200;BME280;3133;43.214;27.906;2023-09-19T04:23:01;100979.50;;;17.46;100.00
6200;BME280;3133;43.214;27.906;2023-09-19T04:25:28;100769.06;;;16.43;100.00
6200;BME280;3133;43.214;27.906;2023-09-19T04:27:55;100989.09;;;17.92;100.00
6200;BME280;3133;43.214;27.906;2023-09-19T04:30:21;100934.94;;;17.76;100.00
6200;BME280;3133;43.214;27.906;2023-09-19T04:32:52;100935.00;;;17.73;100.00
6200;BME280;3133;43.214;27.906;2023-09-19T04:35:19;100995.38;;;18.24;100.00
6200;BME280;3133;43.214;27.906;2023-09-19T04:37:48;100995.72;;;18.48;100.00
6200;BME280;3133;43.214;27.906;2023-09-19T04:40:17;100996.47;;;18.53;100.00
6200;BME280;3133;43.214;27.906;2023-09-19T04:42:44;100999.34;;;18.42;100.00
6200;BME280;3133;43.214;27.906;2023-09-19T04:45:12;100988.56;;;18.53;100.00
6200;BME280;3133;43.214;27.906;2023-09-19T04:47:39;101002.38;;;18.64;100.00
6200;BME280;3133;43.214;27.906;2023-09-19T04:50:08;100879.66;;;17.70;100.00
6200;BME280;3133;43.214;27.906;2023-09-19T04:52:40;100984.84;;;18.23;100.00
6200;BME280;3133;43.214;27.906;2023-09-19T04:55:11;100997.88;;;18.30;100.00
6200;BME280;3133;43.214;27.906;2023-09-19T04:57:41;100826.63;;;17.42;100.00
6200;BME280;3133;43.214;27.906;2023-09-19T05:00:11;100980.00;;;18.42;100.00
6200;BME280;3133;43.214;27.906;2023-09-19T05:02:41;100909.66;;;18.04;100.00
6200;BME280;3133;43.214;27.906;2023-09-19T05:05:12;100836.56;;;17.71;100.00
6200;BME280;3133;43.214;27.906;2023-09-19T05:07:43;100981.34;;;18.58;100.00
6200;BME280;3133;43.214;27.906;2023-09-19T05:10:23;100875.44;;;17.98;100.00
6200;BME280;3133;43.214;27.906;2023-09-19T05:12:53;100963.06;;;18.50;100.00
6200;BME280;3133;43.214;27.906;2023-09-19T05:15:20;100841.94;;;17.66;100.00
6200;BME280;3133;43.214;27.906;2023-09-19T05:17:51;100974.75;;;18.40;100.00
6200;BME280;3133;43.214;27.906;2023-09-19T05:20:20;100905.03;;;18.12;100.00
6200;BME280;3133;43.214;27.906;2023-09-19T05:22:58;100976.16;;;18.55;100.00
6200;BME280;3133;43.214;27.906;2023-09-19T05:25:27;100945.53;;;18.48;100.00
6200;BME280;3133;43.214;27.906;2023-09-19T05:27:55;100909.22;;;18.20;100.00
6200;BME280;3133;43.214;27.906;2023-09-19T05:30:23;100973.09;;;18.71;100.00
6200;BME280;3133;43.214;27.906;2023-09-19T05:32:50;100950.34;;;18.66;100.00
6200;BME280;3133;43.214;27.906;2023-09-19T05:35:18;100893.81;;;18.37;100.00
6200;BME280;3133;43.214;27.906;2023-09-19T05:37:47;100911.00;;;18.54;100.00
6200;BME280;3133;43.214;27.906;2023-09-19T05:40:14;100907.56;;;18.52;100.00
6200;BME280;3133;43.214;27.906;2023-09-19T05:42:42;100974.09;;;18.99;100.00
6200;BME280;3133;43.214;27.906;2023-09-19T05:45:10;100936.69;;;18.82;100.00
6200;BME280;3133;43.214;27.906;2023-09-19T05:47:39;100979.78;;;19.17;100.00
6200;BME280;3133;43.214;27.906;2023-09-19T05:50:12;100975.16;;;19.25;100.00
6200;BME280;3133;43.214;27.906;2023-09-19T05:52:41;100948.81;;;19.22;100.00
6200;BME280;3133;43.214;27.906;2023-09-19T05:55:10;100938.00;;;19.29;100.00
6200;BME280;3133;43.214;27.906;2023-09-19T05:57:49;100976.81;;;19.59;100.00
6200;BME280;3133;43.214;27.906;2023-09-19T06:00:17;100983.03;;;19.58;100.00
6200;BME280;3133;43.214;27.906;2023-09-19T06:02:44;100819.50;;;18.82;100.00
6200;BME280;3133;43.214;27.906;2023-09-19T06:05:11;100888.81;;;19.22;100.00
6200;BME280;3133;43.214;27.906;2023-09-19T06:07:40;100970.84;;;19.82;100.00
6200;BME280;3133;43.214;27.906;2023-09-19T06:10:08;100909.22;;;19.48;100.00
6200;BME280;3133;43.214;27.906;2023-09-19T06:12:38;100913.97;;;19.66;100.00
6200;BME280;3133;43.214;27.906;2023-09-19T06:15:06;100959.81;;;19.96;100.00
6200;BME280;3133;43.214;27.906;2023-09-19T06:17:34;100953.28;;;20.07;100.00
6200;BME280;3133;43.214;27.906;2023-09-19T06:20:05;100956.66;;;20.11;100.00
6200;BME280;3133;43.214;27.906;2023-09-19T06:22:38;100874.91;;;19.46;100.00
6200;BME280;3133;43.214;27.906;2023-09-19T06:25:08;100935.09;;;19.95;100.00
6200;BME280;3133;43.214;27.906;2023-09-19T06:27:37;101001.22;;;20.53;100.00
6200;BME280;3133;43.214;27.906;2023-09-19T06:33:33;100823.09;;;19.93;100.00
6200;BME280;3133;43.214;27.906;2023-09-19T06:36:06;101003.72;;;21.10;100.00
6200;BME280;3133;43.214;27.906;2023-09-19T06:38:34;100937.66;;;20.78;100.00
6200;BME280;3133;43.214;27.906;2023-09-19T06:41:03;100975.94;;;20.94;100.00
6200;BME280;3133;43.214;27.906;2023-09-19T06:43:33;101008.84;;;21.15;100.00
6200;BME280;3133;43.214;27.906;2023-09-19T06:46:01;101003.53;;;21.39;100.00
6200;BME280;3133;43.214;27.906;2023-09-19T06:48:34;100967.81;;;21.48;100.00
6200;BME280;3133;43.214;27.906;2023-09-19T06:51:01;101012.38;;;21.86;100.00
6200;BME280;3133;43.214;27.906;2023-09-19T06:53:30;101013.47;;;22.04;100.00
6200;BME280;3133;43.214;27.906;2023-09-19T06:55:59;100868.88;;;21.21;100.00
6200;BME280;3133;43.214;27.906;2023-09-19T06:58:27;100776.38;;;20.89;100.00
6200;BME280;3133;43.214;27.906;2023-09-19T07:00:54;101009.28;;;22.20;100.00
6200;BME280;3133;43.214;27.906;2023-09-19T07:03:25;101000.28;;;22.24;100.00
6200;BME280;3133;43.214;27.906;2023-09-19T07:05:55;101009.31;;;22.63;100.00
6200;BME280;3133;43.214;27.906;2023-09-19T07:08:24;100889.72;;;21.98;100.00
6200;BME280;3133;43.214;27.906;2023-09-19T07:10:56;100903.03;;;22.19;100.00
6200;BME280;3133;43.214;27.906;2023-09-19T07:13:24;101016.97;;;22.71;100.00
6200;BME280;3133;43.214;27.906;2023-09-19T07:15:53;101024.19;;;22.89;100.00
6200;BME280;3133;43.214;27.906;2023-09-19T07:18:20;100825.97;;;21.98;100.00
6200;BME280;3133;43.214;27.906;2023-09-19T07:20:47;100961.91;;;23.33;100.00
6200;BME280;3133;43.214;27.906;2023-09-19T07:23:19;100963.72;;;23.89;100.00
6200;BME280;3133;43.214;27.906;2023-09-19T07:25:47;101008.50;;;24.36;100.00
6200;BME280;3133;43.214;27.906;2023-09-19T07:28:15;100942.75;;;24.35;100.00
6200;BME280;3133;43.214;27.906;2023-09-19T07:30:43;101005.22;;;25.01;100.00
6200;BME280;3133;43.214;27.906;2023-09-19T07:33:23;100894.38;;;24.43;100.00
6200;BME280;3133;43.214;27.906;2023-09-19T07:36:02;100885.59;;;24.58;100.00
6200;BME280;3133;43.214;27.906;2023-09-19T07:38:33;100969.66;;;25.01;100.00
6200;BME280;3133;43.214;27.906;2023-09-19T07:41:01;101018.16;;;25.09;100.00
6200;BME280;3133;43.214;27.906;2023-09-19T07:43:28;101008.19;;;24.95;100.00
6200;BME280;3133;43.214;27.906;2023-09-19T07:45:55;101009.47;;;24.88;100.00
6200;BME280;3133;43.214;27.906;2023-09-19T07:48:22;100954.22;;;24.55;100.00
6200;BME280;3133;43.214;27.906;2023-09-19T07:50:51;100999.34;;;25.12;100.00
6200;BME280;3133;43.214;27.906;2023-09-19T07:53:18;100997.78;;;24.55;100.00
6200;BME280;3133;43.214;27.906;2023-09-19T07:55:46;100882.06;;;23.88;100.00
6200;BME280;3133;43.214;27.906;2023-09-19T07:58:13;100919.38;;;24.23;100.00
6200;BME280;3133;43.214;27.906;2023-09-19T08:00:41;100991.91;;;24.84;100.00
6200;BME280;3133;43.214;27.906;2023-09-19T08:03:10;100973.69;;;24.75;100.00
6200;BME280;3133;43.214;27.906;2023-09-19T08:05:51;100838.75;;;24.18;100.00
6200;BME280;3133;43.214;27.906;2023-09-19T08:08:18;100992.03;;;24.81;100.00
6200;BME280;3133;43.214;27.906;2023-09-19T08:11:02;100932.09;;;24.70;100.00
6200;BME280;3133;43.214;27.906;2023-09-19T08:13:42;100984.91;;;24.99;100.00
6200;BME280;3133;43.214;27.906;2023-09-19T08:16:12;100974.00;;;24.68;100.00
6200;BME280;3133;43.214;27.906;2023-09-19T08:18:40;100825.50;;;23.64;100.00
6200;BME280;3133;43.214;27.906;2023-09-19T08:21:27;100945.53;;;24.51;100.00
6200;BME280;3133;43.214;27.906;2023-09-19T08:24:08;100980.44;;;24.64;100.00
6200;BME280;3133;43.214;27.906;2023-09-19T08:33:17;100947.38;;;23.78;100.00
6200;BME280;3133;43.214;27.906;2023-09-19T08:35:45;100957.13;;;23.60;100.00
6200;BME280;3133;43.214;27.906;2023-09-19T08:38:12;100962.72;;;23.91;100.00
6200;BME280;3133;43.214;27.906;2023-09-19T08:40:40;100980.50;;;24.28;100.00
6200;BME280;3133;43.214;27.906;2023-09-19T08:43:08;100946.53;;;24.31;100.00
6200;BME280;3133;43.214;27.906;2023-09-19T08:45:38;100768.34;;;23.35;100.00
6200;BME280;3133;43.214;27.906;2023-09-19T08:51:26;100969.75;;;24.29;100.00
6200;BME280;3133;43.214;27.906;2023-09-19T08:54:05;100956.28;;;24.14;100.00
6200;BME280;3133;43.214;27.906;2023-09-19T08:56:34;100851.47;;;23.22;100.00
6200;BME280;3133;43.214;27.906;2023-09-19T08:59:03;100968.69;;;23.96;100.00
6200;BME280;3133;43.214;27.906;2023-09-19T09:01:53;100963.72;;;24.26;100.00
6200;BME280;3133;43.214;27.906;2023-09-19T09:04:22;100961.53;;;24.34;100.00
6200;BME280;3133;43.214;27.906;2023-09-19T09:06:55;100905.75;;;23.94;100.00
6200;BME280;3133;43.214;27.906;2023-09-19T09:09:23;100959.97;;;24.47;100.00
6200;BME280;3133;43.214;27.906;2023-09-19T09:11:51;100926.97;;;23.95;100.00
6200;BME280;3133;43.214;27.906;2023-09-19T09:14:19;100946.31;;;24.36;100.00
6200;BME280;3133;43.214;27.906;2023-09-19T09:16:47;100944.69;;;24.85;100.00
6200;BME280;3133;43.214;27.906;2023-09-19T09:19:15;100767.97;;;24.13;100.00
6200;BME280;3133;43.214;27.906;2023-09-19T09:21:49;100897.63;;;25.17;100.00
6200;BME280;3133;43.214;27.906;2023-09-19T09:24:28;100947.88;;;25.41;100.00
6200;BME280;3133;43.214;27.906;2023-09-19T09:26:56;100889.91;;;25.10;100.00
6200;BME280;3133;43.214;27.906;2023-09-19T09:29:42;100824.88;;;24.80;100.00
6200;BME280;3133;43.214;27.906;2023-09-19T09:32:23;100886.75;;;25.20;100.00
6200;BME280;3133;43.214;27.906;2023-09-19T09:34:52;100947.84;;;24.93;100.00
6200;BME280;3133;43.214;27.906;2023-09-19T09:37:28;100944.16;;;25.28;100.00
6200;BME280;3133;43.214;27.906;2023-09-19T09:40:08;100940.16;;;25.20;100.00
6200;BME280;3133;43.214;27.906;2023-09-19T09:42:58;100873.34;;;24.88;100.00
6200;BME280;3133;43.214;27.906;2023-09-19T09:45:27;100801.22;;;24.23;100.00
6200;BME280;3133;43.214;27.906;2023-09-19T09:48:03;100930.22;;;24.55;100.00
6200;BME280;3133;43.214;27.906;2023-09-19T09:50:34;100909.03;;;24.17;100.00
6200;BME280;3133;43.214;27.906;2023-09-19T09:53:21;100906.59;;;24.13;100.00
6200;BME280;3133;43.214;27.906;2023-09-19T09:56:01;100843.88;;;23.87;100.00
6200;BME280;3133;43.214;27.906;2023-09-19T09:58:31;100869.84;;;23.84;100.00
6200;BME280;3133;43.214;27.906;2023-09-19T10:00:59;100924.50;;;24.28;100.00
6200;BME280;3133;43.214;27.906;2023-09-19T10:03:35;100882.47;;;24.33;100.00
6200;BME280;3133;43.214;27.906;2023-09-19T10:06:08;100891.09;;;24.38;100.00
6200;BME280;3133;43.214;27.906;2023-09-19T10:09:02;100922.84;;;24.43;100.00
6200;BME280;3133;43.214;27.906;2023-09-19T10:11:48;100901.03;;;23.99;100.00
6200;BME280;3133;43.214;27.906;2023-09-19T10:14:29;100919.16;;;24.28;100.00
6200;BME280;3133;43.214;27.906;2023-09-19T10:16:58;100859.00;;;24.22;100.00
6200;BME280;3133;43.214;27.906;2023-09-19T10:19:30;100741.56;;;23.38;100.00
6200;BME280;3133;43.214;27.906;2023-09-19T10:22:09;100804.25;;;23.98;100.00
6200;BME280;3133;43.214;27.906;2023-09-19T10:24:39;100900.34;;;24.99;100.00
6200;BME280;3133;43.214;27.906;2023-09-19T10:27:10;100736.88;;;23.60;100.00
6200;BME280;3133;43.214;27.906;2023-09-19T10:29:39;100912.56;;;24.18;100.00
6200;BME280;3133;43.214;27.906;2023-09-19T10:32:06;100804.47;;;23.94;100.00
6200;BME280;3133;43.214;27.906;2023-09-19T10:34:35;100800.75;;;24.15;100.00
6200;BME280;3133;43.214;27.906;2023-09-19T10:37:12;100846.50;;;24.57;100.00
6200;BME280;3133;43.214;27.906;2023-09-19T10:39:40;100753.34;;;23.51;100.00
6200;BME280;3133;43.214;27.906;2023-09-19T10:42:16;100896.50;;;24.01;100.00
6200;BME280;3133;43.214;27.906;2023-09-19T10:44:45;100840.25;;;23.88;100.00
6200;BME280;3133;43.214;27.906;2023-09-19T10:47:14;100896.97;;;24.45;100.00
6200;BME280;3133;43.214;27.906;2023-09-19T10:49:45;100785.50;;;24.00;100.00
6200;BME280;3133;43.214;27.906;2023-09-19T10:52:14;100740.34;;;23.62;100.00
6200;BME280;3133;43.214;27.906;2023-09-19T10:54:46;100758.44;;;23.90;100.00
6200;BME280;3133;43.214;27.906;2023-09-19T10:57:21;100760.34;;;23.35;100.00
6200;BME280;3133;43.214;27.906;2023-09-19T11:00:03;100726.28;;;23.42;100.00
6200;BME280;3133;43.214;27.906;2023-09-19T11:03:16;100766.53;;;23.89;100.00
6200;BME280;3133;43.214;27.906;2023-09-19T11:06:05;100710.25;;;23.78;100.00
6200;BME280;3133;43.214;27.906;2023-09-19T11:08:55;100684.88;;;23.53;100.00
6200;BME280;3133;43.214;27.906;2023-09-19T11:11:43;100836.50;;;24.28;100.00
6200;BME280;3133;43.214;27.906;2023-09-19T11:14:40;100845.94;;;24.68;100.00
6200;BME280;3133;43.214;27.906;2023-09-19T11:17:31;100817.50;;;24.34;100.00
6200;BME280;3133;43.214;27.906;2023-09-19T11:20:18;100860.97;;;24.53;100.00
6200;BME280;3133;43.214;27.906;2023-09-19T11:23:18;100858.75;;;24.10;100.00
6200;BME280;3133;43.214;27.906;2023-09-19T11:25:49;100861.28;;;24.13;100.00
6200;BME280;3133;43.214;27.906;2023-09-19T11:28:43;100776.25;;;23.90;100.00
6200;BME280;3133;43.214;27.906;2023-09-19T11:31:52;100859.84;;;24.57;100.00
6200;BME280;3133;43.214;27.906;2023-09-19T11:34:40;100804.41;;;24.29;100.00
6200;BME280;3133;43.214;27.906;2023-09-19T11:40:08;100808.97;;;24.27;100.00
6200;BME280;3133;43.214;27.906;2023-09-19T11:42:42;100699.91;;;23.72;100.00
6200;BME280;3133;43.214;27.906;2023-09-19T11:48:29;100845.53;;;24.92;100.00
6200;BME280;3133;43.214;27.906;2023-09-19T11:50:58;100748.31;;;24.15;100.00
6200;BME280;3133;43.214;27.906;2023-09-19T11:53:31;100630.47;;;23.06;100.00
6200;BME280;3133;43.214;27.906;2023-09-19T11:56:05;100838.53;;;24.23;100.00
6200;BME280;3133;43.214;27.906;2023-09-19T11:58:37;100826.94;;;24.07;100.00
6200;BME280;3133;43.214;27.906;2023-09-19T12:01:08;100829.94;;;23.99;100.00
6200;BME280;3133;43.214;27.906;2023-09-19T12:03:46;100820.84;;;23.50;100.00
6200;BME280;3133;43.214;27.906;2023-09-19T12:06:25;100824.59;;;23.82;100.00
6200;BME280;3133;43.214;27.906;2023-09-19T12:08:52;100823.97;;;23.77;100.00
6200;BME280;3133;43.214;27.906;2023-09-19T12:11:21;100767.72;;;23.29;100.00
6200;BME280;3133;43.214;27.906;2023-09-19T12:13:50;100639.63;;;22.45;100.00
6200;BME280;3133;43.214;27.906;2023-09-19T12:16:20;100832.41;;;23.49;100.00
6200;BME280;3133;43.214;27.906;2023-09-19T12:19:20;100759.97;;;23.24;100.00
6200;BME280;3133;43.214;27.906;2023-09-19T12:21:58;100594.66;;;22.22;100.00
6200;BME280;3133;43.214;27.906;2023-09-19T12:24:29;100808.34;;;23.70;100.00
6200;BME280;3133;43.214;27.906;2023-09-19T12:27:09;100814.88;;;23.81;100.00
6200;BME280;3133;43.214;27.906;2023-09-19T12:29:45;100817.66;;;23.61;100.00
6200;BME280;3133;43.214;27.906;2023-09-19T12:32:12;100756.22;;;23.47;100.00
6200;BME280;3133;43.214;27.906;2023-09-19T12:34:50;100809.91;;;23.92;100.00
6200;BME280;3133;43.214;27.906;2023-09-19T12:37:18;100807.81;;;23.80;100.00
6200;BME280;3133;43.214;27.906;2023-09-19T12:39:49;100809.34;;;23.67;100.00
6200;BME280;3133;43.214;27.906;2023-09-19T12:42:21;100710.50;;;22.83;100.00
6200;BME280;3133;43.214;27.906;2023-09-19T12:44:49;100810.63;;;23.23;100.00
6200;BME280;3133;43.214;27.906;2023-09-19T12:47:20;100696.91;;;22.52;100.00
6200;BME280;3133;43.214;27.906;2023-09-19T12:50:11;100797.88;;;23.29;100.00
6200;BME280;3133;43.214;27.906;2023-09-19T12:52:44;100738.34;;;22.95;100.00
6200;BME280;3133;43.214;27.906;2023-09-19T12:55:26;100741.84;;;23.14;100.00
6200;BME280;3133;43.214;27.906;2023-09-19T12:58:11;100798.63;;;23.51;100.00
6200;BME280;3133;43.214;27.906;2023-09-19T13:00:44;100795.75;;;23.37;100.00
6200;BME280;3133;43.214;27.906;2023-09-19T13:03:18;100700.03;;;22.80;100.00
6200;BME280;3133;43.214;27.906;2023-09-19T13:06:03;100795.31;;;23.46;100.00
6200;BME280;3133;43.214;27.906;2023-09-19T13:08:32;100795.38;;;23.45;100.00
6200;BME280;3133;43.214;27.906;2023-09-19T13:11:05;100768.25;;;23.18;100.00
6200;BME280;3133;43.214;27.906;2023-09-19T13:13:36;100637.06;;;22.62;100.00
6200;BME280;3133;43.214;27.906;2023-09-19T13:16:03;100752.47;;;23.51;100.00
6200;BME280;3133;43.214;27.906;2023-09-19T13:18:42;100764.31;;;23.80;100.00
6200;BME280;3133;43.214;27.906;2023-09-19T13:21:28;100786.75;;;23.93;100.00
6200;BME280;3133;43.214;27.906;2023-09-19T13:24:19;100781.84;;;23.67;100.00
6200;BME280;3133;43.214;27.906;2023-09-19T13:26:46;100788.81;;;23.88;100.00
6200;BME280;3133;43.214;27.906;2023-09-19T13:29:13;100788.31;;;23.97;100.00
6200;BME280;3133;43.214;27.906;2023-09-19T13:31:46;100661.47;;;23.24;100.00
6200;BME280;3133;43.214;27.906;2023-09-19T13:34:14;100778.94;;;23.54;100.00
6200;BME280;3133;43.214;27.906;2023-09-19T13:36:44;100789.72;;;23.70;100.00